createdAt,value
2019-05-16T00:00:31.571Z,11.83
2019-05-16T00:02:59.233Z,11.86
2019-05-16T00:05:28.135Z,11.87
2019-05-16T00:07:58.984Z,11.89
2019-05-16T00:10:27.914Z,11.87
2019-05-16T00:12:55.287Z,11.87
2019-05-16T00:15:22.913Z,11.88
2019-05-16T00:17:50.541Z,11.84
2019-05-16T00:20:19.027Z,11.87
2019-05-16T00:22:48.456Z,11.89
2019-05-16T00:25:17.935Z,11.92
2019-05-16T00:27:47.742Z,11.90
2019-05-16T00:30:17.643Z,11.92
2019-05-16T00:32:44.923Z,11.89
2019-05-16T00:35:12.676Z,11.89
2019-05-16T00:37:40.315Z,11.90
2019-05-16T00:40:08.850Z,11.84
2019-05-16T00:42:38.767Z,11.88
2019-05-16T00:45:06.212Z,11.83
2019-05-16T00:47:34.239Z,11.84
2019-05-16T00:50:01.878Z,11.80
2019-05-16T00:52:29.519Z,11.83
2019-05-16T00:54:57.975Z,11.83
2019-05-16T00:57:28.182Z,11.83
2019-05-16T00:59:56.110Z,11.84
2019-05-16T01:02:23.748Z,11.83
2019-05-16T01:04:51.424Z,11.86
2019-05-16T01:07:19.141Z,11.79
2019-05-16T01:09:48.658Z,11.85
2019-05-16T01:12:17.787Z,11.87
2019-05-16T01:14:47.694Z,11.84
2019-05-16T01:17:14.959Z,11.85
2019-05-16T01:19:42.729Z,11.87
2019-05-16T01:22:10.351Z,11.88
2019-05-16T01:24:38.565Z,11.87
2019-05-16T01:27:08.298Z,11.88
2019-05-16T01:29:38.378Z,11.89
2019-05-16T01:32:05.447Z,11.89
2019-05-16T01:34:33.083Z,11.84
2019-05-16T01:37:00.723Z,11.87
2019-05-16T01:39:28.745Z,11.88
2019-05-16T01:41:58.534Z,11.84
2019-05-16T01:44:25.833Z,11.85
2019-05-16T01:46:53.490Z,11.85
2019-05-16T01:49:21.199Z,11.87
2019-05-16T01:51:48.821Z,11.88
2019-05-16T01:54:18.010Z,11.89
2019-05-16T01:56:47.937Z,11.87
2019-05-16T01:59:15.183Z,11.87
2019-05-16T02:01:42.883Z,11.87
2019-05-16T02:04:12.335Z,11.85
2019-05-16T02:06:50.764Z,11.83
2019-05-16T02:09:11.531Z,11.87
2019-05-16T02:11:38.905Z,11.84
2019-05-16T02:14:06.572Z,11.81
2019-05-16T02:16:34.198Z,11.82
2019-05-16T02:19:01.829Z,11.84
2019-05-16T02:21:29.476Z,11.86
2019-05-16T02:23:58.657Z,11.88
2019-05-16T02:26:28.323Z,11.89
2019-05-16T02:28:55.851Z,11.91
2019-05-16T02:31:23.491Z,11.91
2019-05-16T02:33:51.409Z,11.90
2019-05-16T02:36:21.686Z,11.90
2019-05-16T02:38:51.427Z,11.93
2019-05-16T02:41:21.303Z,11.93
2019-05-16T02:43:50.642Z,11.91
2019-05-16T02:46:16.691Z,11.89
2019-05-16T02:48:44.404Z,11.91
2019-05-16T02:51:12.027Z,11.93
2019-05-16T02:53:41.591Z,11.92
2019-05-16T02:56:12.078Z,11.93
2019-05-16T02:58:44.261Z,11.95
2019-05-16T03:01:10.786Z,11.94
2019-05-16T03:03:40.249Z,11.95
2019-05-16T03:06:07.023Z,11.91
2019-05-16T03:08:35.349Z,11.89
2019-05-16T03:11:03.225Z,11.87
2019-05-16T03:13:32.451Z,11.85
2019-05-16T03:16:02.045Z,11.80
2019-05-16T03:18:31.197Z,11.78
2019-05-16T03:21:01.523Z,11.76
2019-05-16T03:23:30.873Z,11.73
2019-05-16T03:26:01.021Z,11.71
2019-05-16T03:28:30.709Z,11.66
2019-05-16T03:30:57.437Z,11.62
2019-05-16T03:33:32.771Z,11.60
2019-05-16T03:35:55.859Z,11.58
2019-05-16T03:38:24.027Z,11.54
2019-05-16T03:40:51.661Z,11.54
2019-05-16T03:43:21.994Z,11.54
2019-05-16T03:45:52.028Z,11.55
2019-05-16T03:48:21.090Z,11.58
2019-05-16T03:50:50.463Z,11.57
2019-05-16T03:53:16.796Z,11.59
2019-05-16T03:55:44.442Z,11.58
2019-05-16T03:58:12.146Z,11.56
2019-05-16T04:00:52.255Z,11.59
2019-05-16T04:03:21.317Z,11.58
2019-05-16T04:05:52.054Z,11.60
2019-05-16T04:08:23.709Z,11.61
2019-05-16T04:10:47.307Z,11.63
2019-05-16T04:13:14.948Z,11.67
2019-05-16T04:15:42.683Z,11.69
2019-05-16T04:18:11.210Z,11.71
2019-05-16T04:20:40.604Z,11.72
2019-05-16T04:23:11.098Z,11.74
2019-05-16T04:25:40.813Z,11.77
2019-05-16T04:28:07.341Z,11.80
2019-05-16T04:30:35.067Z,11.80
2019-05-16T04:33:02.803Z,11.80
2019-05-16T04:35:31.708Z,11.79
2019-05-16T04:38:01.886Z,11.83
2019-05-16T04:40:31.130Z,11.87
2019-05-16T04:43:01.007Z,11.88
2019-05-16T04:45:27.636Z,11.96
2019-05-16T04:47:55.288Z,12.02
2019-05-16T04:50:22.988Z,12.08
2019-05-16T04:52:51.791Z,12.12
2019-05-16T04:55:21.079Z,12.20
2019-05-16T04:57:51.382Z,12.25
2019-05-16T05:00:21.202Z,12.31
2019-05-16T05:02:51.594Z,12.34
2019-05-16T05:05:21.152Z,12.40
2019-05-16T05:07:47.198Z,12.45
2019-05-16T05:10:14.922Z,12.48
2019-05-16T05:12:42.553Z,12.56
2019-05-16T05:15:11.474Z,12.59
2019-05-16T05:17:41.271Z,12.64
2019-05-16T05:20:10.645Z,12.67
2019-05-16T05:22:39.785Z,12.72
2019-05-16T05:25:10.640Z,12.75
2019-05-16T05:27:37.678Z,12.79
2019-05-16T05:30:05.587Z,12.83
2019-05-16T05:32:33.271Z,12.85
2019-05-16T05:35:00.903Z,12.91
2019-05-16T05:37:29.858Z,12.86
2019-05-16T05:39:59.794Z,12.96
2019-05-16T05:42:27.199Z,12.99
2019-05-16T05:44:54.843Z,13.06
2019-05-16T05:47:22.503Z,13.15
2019-05-16T05:49:50.138Z,13.17
2019-05-16T05:52:20.598Z,13.30
2019-05-16T05:54:47.146Z,13.35
2019-05-16T05:57:14.799Z,13.41
2019-05-16T05:59:42.447Z,13.51
2019-05-16T06:02:11.283Z,13.59
2019-05-16T06:04:39.579Z,13.69
2019-05-16T06:07:10.019Z,13.78
2019-05-16T06:09:49.787Z,13.84
2019-05-16T06:12:07.600Z,13.92
2019-05-16T06:14:35.490Z,13.94
2019-05-16T06:17:03.133Z,14.01
2019-05-16T06:19:30.820Z,13.96
2019-05-16T06:22:00.842Z,14.13
2019-05-16T06:24:30.381Z,14.20
2019-05-16T06:26:57.235Z,14.23
2019-05-16T06:29:25.046Z,14.31
2019-05-16T06:32:24.459Z,14.39
2019-05-16T06:36:25.345Z,14.22
2019-05-16T06:38:53.761Z,13.83
2019-05-16T06:41:22.192Z,13.73
2019-05-16T06:43:50.900Z,13.72
2019-05-16T06:46:20.089Z,13.76
2019-05-16T06:48:50.662Z,13.66
2019-05-16T06:51:20.054Z,13.64
2019-05-16T06:53:50.068Z,13.60
2019-05-16T06:56:20.031Z,13.48
2019-05-16T06:58:51.790Z,13.42
2019-05-16T07:01:20.855Z,13.37
2019-05-16T07:03:50.829Z,13.34
2019-05-16T07:06:45.651Z,13.30
2019-05-16T07:08:50.700Z,13.37
2019-05-16T07:11:20.159Z,13.38
2019-05-16T07:13:52.045Z,13.44
2019-05-16T07:16:20.594Z,13.49
2019-05-16T07:18:50.649Z,13.57
2019-05-16T07:21:20.206Z,13.66
2019-05-16T07:23:51.113Z,13.66
2019-05-16T07:26:20.559Z,13.69
2019-05-16T07:28:51.610Z,13.73
2019-05-16T07:31:22.283Z,13.75
2019-05-16T07:33:50.217Z,13.80
2019-05-16T07:36:20.849Z,13.78
2019-05-16T07:38:50.711Z,13.79
2019-05-16T07:41:20.451Z,13.78
2019-05-16T07:43:50.636Z,13.84
2019-05-16T07:46:20.671Z,13.90
2019-05-16T07:48:51.739Z,13.95
2019-05-16T07:51:20.509Z,13.99
2019-05-16T07:53:50.508Z,14.06
2019-05-16T07:56:20.386Z,14.15
2019-05-16T07:58:50.817Z,14.12
2019-05-16T08:01:20.073Z,14.01
2019-05-16T08:03:50.925Z,13.92
2019-05-16T08:06:20.093Z,13.74
2019-05-16T08:08:50.602Z,13.59
2019-05-16T08:11:23.193Z,13.85
2019-05-16T08:13:50.600Z,13.42
2019-05-16T08:16:20.800Z,13.37
2019-05-16T08:18:50.556Z,13.25
2019-05-16T08:21:20.225Z,13.17
2019-05-16T08:23:50.371Z,13.09
2019-05-16T08:26:21.977Z,13.07
2019-05-16T08:28:50.370Z,13.28
2019-05-16T08:31:21.508Z,12.97
2019-05-16T08:33:53.556Z,12.91
2019-05-16T08:36:20.944Z,12.87
2019-05-16T08:38:51.639Z,12.81
2019-05-16T08:46:20.778Z,12.99
2019-05-16T08:48:53.711Z,12.72
2019-05-16T08:51:22.196Z,12.72
2019-05-16T08:53:50.576Z,12.72
2019-05-16T08:56:22.040Z,12.75
2019-05-16T08:58:54.069Z,12.86
2019-05-16T09:01:21.655Z,12.94
2019-05-16T09:08:50.604Z,13.17
2019-05-16T09:10:11.185Z,12.74
2019-05-16T09:10:11.186Z,12.73
2019-05-16T09:10:15.893Z,13.03
2019-05-16T09:11:33.737Z,13.20
2019-05-16T09:13:49.210Z,13.24
2019-05-16T09:16:18.386Z,13.22
2019-05-16T09:18:32.825Z,13.10
2019-05-16T09:18:46.855Z,13.18
2019-05-16T09:21:18.321Z,13.15
2019-05-16T09:23:46.981Z,13.03
2019-05-16T09:26:18.952Z,12.97
2019-05-16T09:28:48.209Z,12.90
2019-05-16T09:31:17.906Z,12.84
2019-05-16T09:33:47.453Z,12.79
2019-05-16T09:36:17.477Z,13.02
2019-05-16T09:38:48.395Z,12.75
2019-05-16T09:41:16.924Z,12.75
2019-05-16T09:43:48.633Z,12.77
2019-05-16T09:46:17.165Z,12.82
2019-05-16T09:48:47.845Z,12.90
2019-05-16T09:51:17.587Z,12.96
2019-05-16T09:53:47.136Z,13.05
2019-05-16T09:56:16.812Z,13.12
2019-05-16T09:58:46.740Z,13.21
2019-05-16T10:01:17.418Z,13.36
2019-05-16T10:03:47.760Z,13.45
2019-05-16T10:06:19.007Z,13.63
2019-05-16T10:08:46.538Z,13.76
2019-05-16T10:11:17.827Z,13.84
2019-05-16T10:13:47.187Z,13.96
2019-05-16T10:16:16.756Z,14.03
2019-05-16T10:18:47.500Z,14.09
2019-05-16T10:21:19.659Z,14.16
2019-05-16T10:23:46.813Z,14.42
2019-05-16T10:26:17.237Z,14.14
2019-05-16T10:28:46.657Z,14.15
2019-05-16T10:31:14.531Z,14.25
2019-05-16T10:33:42.956Z,14.02
2019-05-16T10:36:11.376Z,13.94
2019-05-16T10:38:39.819Z,13.88
2019-05-16T10:41:08.268Z,13.87
2019-05-16T10:43:37.135Z,13.88
2019-05-16T10:46:06.481Z,13.83
2019-05-16T10:48:37.562Z,13.72
2019-05-16T10:51:07.722Z,13.64
2019-05-16T10:54:00.926Z,13.48
2019-05-16T10:56:07.753Z,13.71
2019-05-16T10:58:43.892Z,13.23
2019-05-16T11:01:19.404Z,12.98
2019-05-16T11:03:35.709Z,12.76
2019-05-16T11:06:06.699Z,12.90
2019-05-16T11:08:34.327Z,12.50
2019-05-16T11:11:06.744Z,12.26
2019-05-16T11:13:36.940Z,12.19
2019-05-16T11:16:07.059Z,12.07
2019-05-16T11:18:37.636Z,11.85
2019-05-16T11:21:05.816Z,11.92
2019-05-16T11:23:36.591Z,11.88
2019-05-16T11:26:04.511Z,11.79
2019-05-16T11:28:32.994Z,11.68
2019-05-16T11:31:03.696Z,11.59
2019-05-16T11:33:32.016Z,11.45
2019-05-16T11:36:00.603Z,11.36
2019-05-16T11:38:29.051Z,11.26
2019-05-16T11:40:57.474Z,11.20
2019-05-16T11:43:27.893Z,11.18
2019-05-16T11:45:57.389Z,11.17
2019-05-16T11:48:29.094Z,11.14
2019-05-16T11:50:56.986Z,11.16
2019-05-16T11:53:28.253Z,11.16
2019-05-16T11:56:00.777Z,11.22
2019-05-16T11:58:26.628Z,11.25
2019-05-16T12:00:57.540Z,11.28
2019-05-16T12:03:27.853Z,11.34
2019-05-16T12:05:57.965Z,11.41
2019-05-16T12:08:26.521Z,11.52
2019-05-16T12:10:54.985Z,11.60
2019-05-16T12:13:29.656Z,11.72
2019-05-16T12:15:53.585Z,11.81
2019-05-16T12:18:21.997Z,11.88
2019-05-16T12:20:50.427Z,11.89
2019-05-16T12:23:19.122Z,11.90
2019-05-16T12:25:47.776Z,11.85
2019-05-16T12:28:16.840Z,11.84
2019-05-16T12:30:47.131Z,11.86
2019-05-16T12:33:18.318Z,11.83
2019-05-16T12:35:47.453Z,11.82
2019-05-16T12:38:17.250Z,11.81
2019-05-16T12:40:47.939Z,11.82
2019-05-16T12:43:18.046Z,11.83
2019-05-16T12:45:47.305Z,11.82
2019-05-16T12:48:19.903Z,11.81
2019-05-16T12:50:48.105Z,11.79
2019-05-16T12:53:16.731Z,11.79
2019-05-16T12:55:47.487Z,11.79
2019-05-16T12:58:20.110Z,11.76
2019-05-16T13:00:53.957Z,11.77
2019-05-16T13:03:15.684Z,11.78
2019-05-16T13:05:44.175Z,11.81
2019-05-16T13:08:12.611Z,11.84
2019-05-16T13:10:41.033Z,11.91
2019-05-16T13:13:09.485Z,11.96
2019-05-16T13:15:42.083Z,12.04
2019-05-16T13:18:08.249Z,12.11
2019-05-16T13:20:39.313Z,12.19
2019-05-16T13:23:14.338Z,12.28
2019-05-16T13:25:37.103Z,12.39
2019-05-16T13:28:07.920Z,12.54
2019-05-16T13:30:37.680Z,12.73
2019-05-16T13:33:07.198Z,12.93
2019-05-16T13:35:37.026Z,13.11
2019-05-16T13:38:07.878Z,13.37
2019-05-16T13:40:36.098Z,13.65
2019-05-16T13:43:09.817Z,13.97
2019-05-16T13:45:37.479Z,14.20
2019-05-16T13:48:07.809Z,14.41
2019-05-16T13:50:37.342Z,14.70
2019-05-16T13:53:07.765Z,14.95
2019-05-16T13:55:37.703Z,15.19
2019-05-16T13:58:07.789Z,15.35
2019-05-16T14:00:37.582Z,15.48
2019-05-16T14:03:07.322Z,15.55
2019-05-16T14:05:37.974Z,15.67
2019-05-16T14:08:06.864Z,15.67
2019-05-16T14:10:37.431Z,15.74
2019-05-16T14:13:07.583Z,15.68
2019-05-16T14:15:36.766Z,15.70
2019-05-16T14:18:07.751Z,15.67
2019-05-16T14:20:37.743Z,15.56
2019-05-16T14:23:08.501Z,15.55
2019-05-16T14:25:37.912Z,15.57
2019-05-16T14:28:07.612Z,15.40
2019-05-16T14:30:37.183Z,15.61
2019-05-16T14:33:13.187Z,15.32
2019-05-16T14:35:37.649Z,15.30
2019-05-16T14:38:06.480Z,15.23
2019-05-16T14:40:37.390Z,15.26
2019-05-16T14:43:08.026Z,15.24
2019-05-16T14:45:37.189Z,15.19
2019-05-16T14:48:07.719Z,15.18
2019-05-16T14:50:37.508Z,15.16
2019-05-16T14:53:07.423Z,15.16
2019-05-16T14:55:38.117Z,15.15
2019-05-16T14:58:07.489Z,15.12
2019-05-16T15:00:38.367Z,15.08
2019-05-16T15:03:08.242Z,15.07
2019-05-16T15:05:42.713Z,15.14
2019-05-16T15:08:08.133Z,15.17
2019-05-16T15:10:37.782Z,15.21
2019-05-16T15:13:07.874Z,15.25
2019-05-16T15:15:37.597Z,15.26
2019-05-16T15:18:08.049Z,15.33
2019-05-16T15:20:36.604Z,15.36
2019-05-16T15:23:07.441Z,15.40
2019-05-16T15:25:37.425Z,15.44
2019-05-16T15:28:07.548Z,15.50
2019-05-16T15:30:38.963Z,15.46
2019-05-16T15:33:08.519Z,15.55
2019-05-16T15:35:38.099Z,15.51
2019-05-16T15:38:07.874Z,15.60
2019-05-16T15:40:37.679Z,15.66
2019-05-16T15:43:07.816Z,15.76
2019-05-16T15:45:43.465Z,15.90
2019-05-16T15:48:12.465Z,15.98
2019-05-16T15:50:41.137Z,16.15
2019-05-16T15:53:09.636Z,16.21
2019-05-16T15:55:38.340Z,16.26
2019-05-16T15:58:09.933Z,16.29
2019-05-16T16:00:51.523Z,16.33
2019-05-16T16:03:19.954Z,16.24
2019-05-16T16:05:48.383Z,16.17
2019-05-16T16:08:18.170Z,16.01
2019-05-16T16:10:47.789Z,15.88
2019-05-16T16:13:19.812Z,15.68
2019-05-16T16:15:51.516Z,15.53
2019-05-16T16:18:21.579Z,15.37
2019-05-16T16:20:48.164Z,15.17
2019-05-16T16:23:17.828Z,14.97
2019-05-16T16:25:50.543Z,14.76
2019-05-16T16:28:17.798Z,14.66
2019-05-16T16:30:47.940Z,14.54
2019-05-16T16:33:25.457Z,14.38
2019-05-16T16:35:47.890Z,14.25
2019-05-16T16:38:17.054Z,14.16
2019-05-16T16:40:47.812Z,14.03
2019-05-16T16:43:15.716Z,13.94
2019-05-16T16:45:44.161Z,13.86
2019-05-16T16:48:12.597Z,13.76
2019-05-16T16:50:41.507Z,13.63
2019-05-16T16:53:09.948Z,13.55
2019-05-16T16:55:38.389Z,13.50
2019-05-16T16:58:09.540Z,13.50
2019-05-16T17:00:37.714Z,13.45
2019-05-16T17:03:10.281Z,13.43
2019-05-16T17:05:37.337Z,13.38
2019-05-16T17:08:07.589Z,13.37
2019-05-16T17:10:38.068Z,13.32
2019-05-16T17:13:07.110Z,13.35
2019-05-16T17:15:36.803Z,13.35
2019-05-16T17:18:06.990Z,13.35
2019-05-16T17:20:37.295Z,13.30
2019-05-16T17:23:06.954Z,13.61
2019-05-16T17:25:36.785Z,13.31
2019-05-16T17:28:06.933Z,13.28
2019-05-16T17:30:36.752Z,13.25
2019-05-16T17:33:07.560Z,13.23
2019-05-16T17:35:38.624Z,13.23
2019-05-16T17:38:06.789Z,13.21
2019-05-16T17:40:37.969Z,13.18
2019-05-16T17:43:07.362Z,13.18
2019-05-16T17:45:37.595Z,13.16
2019-05-16T17:48:06.877Z,13.13
2019-05-16T17:50:37.511Z,13.15
2019-05-16T17:53:07.112Z,13.14
2019-05-16T17:55:36.909Z,13.12
2019-05-16T17:58:08.738Z,13.14
2019-05-16T18:00:36.162Z,13.13
2019-05-16T18:03:06.728Z,12.84
2019-05-16T18:05:37.050Z,13.13
2019-05-16T18:08:07.162Z,13.12
2019-05-16T18:10:36.520Z,13.14
2019-05-16T18:13:07.732Z,13.14
2019-05-16T18:15:36.916Z,13.13
2019-05-16T18:18:07.074Z,13.11
2019-05-16T18:20:37.345Z,13.11
2019-05-16T18:23:07.066Z,13.12
2019-05-16T18:25:36.507Z,13.13
2019-05-16T18:28:07.934Z,13.12
2019-05-16T18:30:36.611Z,13.10
2019-05-16T18:33:07.296Z,13.09
2019-05-16T18:35:37.097Z,13.07
2019-05-16T18:38:07.242Z,13.38
2019-05-16T18:40:36.709Z,13.06
2019-05-16T18:43:07.835Z,13.35
2019-05-16T18:45:36.618Z,13.03
2019-05-16T18:48:07.299Z,13.01
2019-05-16T18:50:37.969Z,12.98
2019-05-16T18:53:07.277Z,12.96
2019-05-16T18:55:37.359Z,12.96
2019-05-16T18:58:08.592Z,12.93
2019-05-16T19:00:37.559Z,12.93
2019-05-16T19:03:07.674Z,12.88
2019-05-16T19:05:37.325Z,12.83
2019-05-16T19:08:07.386Z,12.80
2019-05-16T19:10:36.979Z,12.76
2019-05-16T19:13:08.062Z,12.72
2019-05-16T19:15:37.449Z,12.71
2019-05-16T19:18:06.585Z,12.96
2019-05-16T19:20:37.605Z,12.64
2019-05-16T19:23:07.413Z,12.55
2019-05-16T19:25:36.118Z,12.51
2019-05-16T19:28:06.952Z,12.51
2019-05-16T19:30:37.076Z,12.39
2019-05-16T19:33:06.849Z,12.39
2019-05-16T19:35:35.272Z,12.35
2019-05-16T19:38:06.829Z,12.34
2019-05-16T19:40:37.670Z,12.33
2019-05-16T19:43:07.262Z,12.30
2019-05-16T19:45:37.303Z,12.32
2019-05-16T19:48:07.250Z,12.31
2019-05-16T19:50:37.178Z,12.30
2019-05-16T19:53:07.657Z,12.28
2019-05-16T19:55:36.666Z,12.28
2019-05-16T19:58:06.993Z,12.30
2019-05-16T20:00:37.535Z,12.23
2019-05-16T20:03:07.633Z,12.25
2019-05-16T20:05:37.515Z,11.50
2019-05-16T20:08:06.813Z,12.27
2019-05-16T20:10:36.760Z,12.25
2019-05-16T20:13:07.654Z,12.22
2019-05-16T20:15:36.577Z,12.22
2019-05-16T20:18:07.672Z,12.20
2019-05-16T20:20:37.278Z,12.21
2019-05-16T20:23:06.163Z,12.19
2019-05-16T20:25:36.646Z,12.18
2019-05-16T20:28:08.776Z,12.19
2019-05-16T20:30:36.903Z,12.20
2019-05-16T20:33:08.934Z,12.19
2019-05-16T20:35:37.575Z,11.73
2019-05-16T20:38:06.800Z,12.19
2019-05-16T20:40:37.534Z,12.19
2019-05-16T20:43:07.631Z,12.19
2019-05-16T20:45:39.260Z,12.16
2019-05-16T20:48:12.274Z,12.14
2019-05-16T20:50:36.377Z,12.14
2019-05-16T20:53:06.989Z,12.14
2019-05-16T20:55:37.424Z,12.12
2019-05-16T20:58:07.692Z,12.11
2019-05-16T21:00:37.542Z,12.09
2019-05-16T21:03:07.055Z,12.09
2019-05-16T21:05:38.184Z,12.08
2019-05-16T21:08:06.463Z,12.07
2019-05-16T21:10:35.253Z,12.09
2019-05-16T21:13:03.683Z,12.08
2019-05-16T21:15:32.113Z,12.07
2019-05-16T21:18:00.568Z,12.08
2019-05-16T21:20:29.857Z,12.09
2019-05-16T21:22:58.624Z,12.08
2019-05-16T21:25:27.054Z,12.09
2019-05-16T21:27:57.354Z,12.09
2019-05-16T21:30:27.338Z,12.08
2019-05-16T21:32:56.617Z,12.10
2019-05-16T21:35:27.031Z,12.14
2019-05-16T21:37:56.217Z,12.10
2019-05-16T21:40:26.501Z,12.11
2019-05-16T21:42:58.518Z,12.11
2019-05-16T21:45:28.211Z,12.12
2019-05-16T21:47:56.776Z,12.11
2019-05-16T21:50:27.542Z,12.09
2019-05-16T21:52:56.781Z,12.08
2019-05-16T21:55:27.327Z,12.03
2019-05-16T21:57:57.438Z,12.09
2019-05-16T22:00:30.855Z,12.10
2019-05-16T22:02:59.341Z,12.14
2019-05-16T22:05:28.319Z,12.11
2019-05-16T22:07:56.913Z,12.11
2019-05-16T22:10:26.673Z,12.11
2019-05-16T22:12:57.240Z,12.13
2019-05-16T22:15:25.717Z,12.15
2019-05-16T22:17:56.481Z,12.15
2019-05-16T22:20:26.945Z,12.16
2019-05-16T22:22:54.074Z,12.17
2019-05-16T22:25:22.454Z,12.50
2019-05-16T22:27:50.880Z,12.23
2019-05-16T22:30:19.959Z,12.19
2019-05-16T22:32:48.865Z,12.19
2019-05-16T22:35:19.252Z,12.19
2019-05-16T22:37:55.188Z,12.22
2019-05-16T22:40:19.141Z,12.22
2019-05-16T22:42:47.756Z,12.20
2019-05-16T22:45:18.163Z,12.21
2019-05-16T22:47:47.038Z,11.92
2019-05-16T22:50:17.815Z,12.23
2019-05-16T22:52:46.245Z,12.24
2019-05-16T22:55:16.985Z,12.22
2019-05-16T22:57:47.332Z,12.21
2019-05-16T23:00:17.111Z,12.21
2019-05-16T23:02:45.610Z,12.55
2019-05-16T23:05:14.070Z,12.24
2019-05-16T23:07:42.492Z,12.20
2019-05-16T23:10:11.090Z,12.20
2019-05-16T23:12:39.645Z,12.19
2019-05-16T23:15:08.372Z,12.19
2019-05-16T23:17:37.541Z,12.16
2019-05-16T23:20:06.650Z,12.13
2019-05-16T23:22:36.715Z,12.15
2019-05-16T23:25:06.653Z,12.10
2019-05-16T23:27:36.760Z,12.09
2019-05-16T23:30:08.171Z,12.08
2019-05-16T23:32:36.642Z,12.06
2019-05-16T23:35:09.649Z,12.04
2019-05-16T23:37:38.084Z,12.03
2019-05-16T23:40:06.888Z,12.02
2019-05-16T23:42:37.118Z,12.01
2019-05-16T23:45:09.710Z,12.00
2019-05-16T23:47:38.150Z,12.02
2019-05-16T23:50:08.021Z,12.03
2019-05-16T23:52:36.922Z,12.00
2019-05-16T23:55:08.383Z,12.00
2019-05-16T23:57:37.538Z,12.00
